Terminal Aerodrome Forecast
Issued by NWS

Home | Current Version | Previous Version | Graphics & Text | Print | Product List | Glossary On
Versions: 1 2 3 4 5 6 7 8 9 10 11 12 13 14 15 16 17 18 19 20 21 22 23 24 25 26 27 28 29 30 31 32 33
000
FTUS43 KLOT 032202 AAB
TAFORD
TAF AMD
KORD 032202Z 0322/0424 26011G18KT P6SM SCT050 SCT250
     FM032300 29010KT P6SM VCTS SCT050CB BKN250
     FM040000 04008KT P6SM VCTS SCT030 SCT050CB BKN250
      TEMPO 0400/0402 04010G15KT
     FM040200 03005KT 6SM BR SCT020 BKN040
     FM041400 07006KT P6SM SCT050=

USA.gov is the U.S. government's official web portal to all federal, state and local government web resources and services.